Time,TemperatureF,DewpointF,PressureIn,WindDirection,WindDirectionDegrees,WindSpeedMPH,WindSpeedGustMPH,Humidity,HourlyPrecipIn,Conditions,Clouds,dailyrainin,SoftwareType,DateUTC
2013-02-22 00:01:00,56.0,24.0,29.73,SW,217,1.0,9.0,29,0.00,,,0.00,,2013-02-22 06:01:00,
2013-02-22 00:12:00,56.0,24.0,29.73,SW,217,1.0,9.0,29,0.00,,,0.00,,2013-02-22 06:12:00,
2013-02-22 00:21:00,54.0,24.0,29.75,SSW,208,1.0,3.0,31,0.00,,,0.00,,2013-02-22 06:21:00,
2013-02-22 00:31:00,55.0,25.0,29.76,South,186,1.0,4.0,31,0.00,,,0.00,,2013-02-22 06:31:00,
2013-02-22 00:42:00,55.0,25.0,29.76,South,186,1.0,4.0,31,0.00,,,0.00,,2013-02-22 06:42:00,
2013-02-22 00:51:00,54.0,25.0,29.76,SSW,210,1.0,2.0,32,0.00,,,0.00,,2013-02-22 06:51:00,
2013-02-22 01:01:00,54.0,25.0,29.78,SW,215,3.0,6.0,32,0.00,,,0.00,,2013-02-22 07:01:00,
2013-02-22 01:11:00,54.0,25.0,29.77,SSW,193,0.0,2.0,32,0.00,,,0.00,,2013-02-22 07:11:00,
2013-02-22 01:21:00,54.0,25.0,29.77,SSW,193,0.0,2.0,32,0.00,,,0.00,,2013-02-22 07:21:00,
2013-02-22 01:31:00,55.0,25.0,29.78,South,191,1.0,3.0,31,0.00,,,0.00,,2013-02-22 07:31:00,
2013-02-22 01:42:00,56.0,25.0,29.79,SSE,159,1.0,3.0,30,0.00,,,0.00,,2013-02-22 07:42:00,
2013-02-22 01:51:00,56.0,25.0,29.79,SSE,159,1.0,3.0,30,0.00,,,0.00,,2013-02-22 07:51:00,
2013-02-22 02:01:00,56.0,25.0,29.80,SW,218,1.0,3.0,30,0.00,,,0.00,,2013-02-22 08:01:00,
2013-02-22 02:21:00,56.0,26.0,29.80,SW,236,1.0,2.0,31,0.00,,,0.00,,2013-02-22 08:21:00,
2013-02-22 02:31:00,55.0,25.0,29.80,South,180,1.0,3.0,31,0.00,,,0.00,,2013-02-22 08:31:00,
2013-02-22 02:52:00,55.0,26.0,29.80,South,188,0.0,3.0,32,0.00,,,0.00,,2013-02-22 08:52:00,
2013-02-22 03:03:00,54.0,25.0,29.80,South,176,0.0,2.0,32,0.00,,,0.00,,2013-02-22 09:03:00,
2013-02-22 03:11:00,51.0,26.0,29.79,SSE,162,0.0,1.0,37,0.00,,,0.00,,2013-02-22 09:11:00,
2013-02-22 03:21:00,51.0,26.0,29.79,SSE,162,0.0,1.0,37,0.00,,,0.00,,2013-02-22 09:21:00,
2013-02-22 03:32:00,47.0,26.0,29.80,East,94,1.0,6.0,43,0.00,,,0.00,,2013-02-22 09:32:00,
2013-02-22 03:42:00,47.0,26.0,29.80,East,94,1.0,6.0,43,0.00,,,0.00,,2013-02-22 09:42:00,
2013-02-22 03:51:00,45.0,26.0,29.80,ESE,114,0.0,3.0,47,0.00,,,0.00,,2013-02-22 09:51:00,
2013-02-22 04:01:00,46.0,29.0,29.80,ESE,115,1.0,3.0,52,0.00,,,0.00,,2013-02-22 10:01:00,
2013-02-22 04:11:00,46.0,29.0,29.80,ESE,115,1.0,3.0,52,0.00,,,0.00,,2013-02-22 10:11:00,
2013-02-22 04:21:00,46.0,31.0,29.81,East,94,0.0,2.0,55,0.00,,,0.00,,2013-02-22 10:21:00,
2013-02-22 04:32:00,45.0,31.0,29.82,NE,55,1.0,3.0,57,0.00,,,0.00,,2013-02-22 10:32:00,
2013-02-22 04:42:00,45.0,31.0,29.82,NE,55,1.0,3.0,57,0.00,,,0.00,,2013-02-22 10:42:00,
2013-02-22 04:51:00,44.0,31.0,29.84,East,84,0.0,1.0,60,0.00,,,0.00,,2013-02-22 10:51:00,
2013-02-22 05:01:00,43.0,32.0,29.85,East,85,0.0,0.0,64,0.00,,,0.00,,2013-02-22 11:01:00,
2013-02-22 05:11:00,43.0,32.0,29.85,East,85,0.0,0.0,64,0.00,,,0.00,,2013-02-22 11:11:00,
2013-02-22 05:21:00,43.0,33.0,29.86,East,94,0.0,1.0,67,0.00,,,0.00,,2013-02-22 11:21:00,
2013-02-22 05:32:00,42.0,32.0,29.88,ENE,68,1.0,3.0,68,0.00,,,0.00,,2013-02-22 11:32:00,
2013-02-22 05:42:00,42.0,32.0,29.88,ENE,68,1.0,3.0,68,0.00,,,0.00,,2013-02-22 11:42:00,
2013-02-22 05:52:00,42.0,33.0,29.88,East,89,0.0,2.0,69,0.00,,,0.00,,2013-02-22 11:52:00,
2013-02-22 06:02:00,42.0,34.0,29.89,ENE,75,1.0,3.0,72,0.00,,,0.00,,2013-02-22 12:02:00,
2013-02-22 06:11:00,42.0,34.0,29.89,ENE,75,1.0,3.0,72,0.00,,,0.00,,2013-02-22 12:11:00,
2013-02-22 06:22:00,42.0,35.0,29.89,ESE,108,2.0,6.0,75,0.00,,,0.00,,2013-02-22 12:22:00,
2013-02-22 06:32:00,42.0,36.0,29.90,East,97,3.0,6.0,78,0.00,,,0.00,,2013-02-22 12:32:00,
2013-02-22 06:42:00,42.0,36.0,29.90,East,97,3.0,6.0,78,0.00,,,0.00,,2013-02-22 12:42:00,
2013-02-22 06:52:00,43.0,37.0,29.90,ESE,120,4.0,7.0,78,0.00,,,0.00,,2013-02-22 12:52:00,
2013-02-22 07:02:00,42.0,36.0,29.91,East,94,1.0,7.0,78,0.00,,,0.00,,2013-02-22 13:02:00,
2013-02-22 07:11:00,42.0,36.0,29.91,East,94,1.0,7.0,78,0.00,,,0.00,,2013-02-22 13:11:00,
2013-02-22 07:22:00,42.0,36.0,29.91,East,101,2.0,7.0,80,0.00,,,0.00,,2013-02-22 13:22:00,
2013-02-22 07:32:00,42.0,37.0,29.92,ESE,113,3.0,7.0,83,0.00,,,0.00,,2013-02-22 13:32:00,
2013-02-22 07:42:00,42.0,37.0,29.92,ESE,113,3.0,7.0,83,0.00,,,0.00,,2013-02-22 13:42:00,
2013-02-22 07:52:00,41.0,36.0,29.93,SE,138,4.0,9.0,83,0.00,,,0.00,,2013-02-22 13:52:00,
2013-02-22 08:01:00,41.0,36.0,29.93,NNE,32,4.0,8.0,83,0.00,,,0.00,,2013-02-22 14:01:00,
2013-02-22 08:11:00,41.0,37.0,29.93,East,86,3.0,9.0,84,0.00,,,0.00,,2013-02-22 14:11:00,
2013-02-22 08:21:00,41.0,37.0,29.93,East,86,3.0,9.0,84,0.00,,,0.00,,2013-02-22 14:21:00,
2013-02-22 08:32:00,41.0,36.0,29.93,ENE,74,5.0,9.0,82,0.00,,,0.00,,2013-02-22 14:32:00,
2013-02-22 08:42:00,41.0,36.0,29.94,NNE,32,4.0,8.0,81,0.00,,,0.00,,2013-02-22 14:42:00,
2013-02-22 08:52:00,41.0,36.0,29.94,NNE,32,4.0,8.0,81,0.00,,,0.00,,2013-02-22 14:52:00,
2013-02-22 09:01:00,41.0,35.0,29.95,ESE,110,3.0,10.0,80,0.00,,,0.00,,2013-02-22 15:01:00,
2013-02-22 09:11:00,41.0,35.0,29.95,ESE,110,3.0,10.0,80,0.00,,,0.00,,2013-02-22 15:11:00,
2013-02-22 09:21:00,41.0,35.0,29.94,NE,42,5.0,14.0,79,0.00,,,0.00,,2013-02-22 15:21:00,
2013-02-22 09:32:00,41.0,35.0,29.95,ENE,77,4.0,9.0,78,0.00,,,0.00,,2013-02-22 15:32:00,
2013-02-22 09:42:00,41.0,35.0,29.95,ENE,77,4.0,9.0,78,0.00,,,0.00,,2013-02-22 15:42:00,
2013-02-22 09:52:00,41.0,34.0,29.95,NE,50,5.0,11.0,77,0.00,,,0.00,,2013-02-22 15:52:00,
2013-02-22 10:01:00,41.0,34.0,29.96,NE,50,6.0,11.0,76,0.00,,,0.00,,2013-02-22 16:01:00,
2013-02-22 10:12:00,42.0,35.0,29.96,ENE,63,3.0,10.0,75,0.00,,,0.00,,2013-02-22 16:12:00,
2013-02-22 10:21:00,42.0,35.0,29.96,ENE,63,3.0,10.0,75,0.00,,,0.00,,2013-02-22 16:21:00,
2013-02-22 10:32:00,42.0,34.0,29.95,East,94,2.0,13.0,72,0.00,,,0.00,,2013-02-22 16:32:00,
2013-02-22 10:42:00,42.0,34.0,29.95,East,94,2.0,13.0,72,0.00,,,0.00,,2013-02-22 16:42:00,
2013-02-22 10:52:00,42.0,34.0,29.95,East,94,2.0,13.0,72,0.00,,,0.00,,2013-02-22 16:52:00,
2013-02-22 11:01:00,42.0,32.0,29.96,ENE,70,3.0,10.0,67,0.00,,,0.00,,2013-02-22 17:01:00,
2013-02-22 11:11:00,42.0,32.0,29.96,ENE,70,3.0,10.0,67,0.00,,,0.00,,2013-02-22 17:11:00,
2013-02-22 11:21:00,44.0,32.0,29.96,ESE,117,6.0,10.0,62,0.00,,,0.00,,2013-02-22 17:21:00,
2013-02-22 11:32:00,44.0,31.0,29.96,East,89,4.0,9.0,61,0.00,,,0.00,,2013-02-22 17:32:00,
2013-02-22 11:42:00,44.0,31.0,29.96,East,89,4.0,9.0,61,0.00,,,0.00,,2013-02-22 17:42:00,
2013-02-22 11:52:00,44.0,31.0,29.96,ENE,70,2.0,8.0,60,0.00,,,0.00,,2013-02-22 17:52:00,
2013-02-22 12:01:00,44.0,31.0,29.96,ENE,70,2.0,8.0,60,0.00,,,0.00,,2013-02-22 18:01:00,
2013-02-22 12:12:00,48.0,33.0,29.95,SE,129,3.0,7.0,55,0.00,,,0.00,,2013-02-22 18:12:00,
2013-02-22 12:22:00,48.0,33.0,29.95,SE,129,3.0,7.0,55,0.00,,,0.00,,2013-02-22 18:22:00,
2013-02-22 12:32:00,49.0,31.0,29.95,ENE,72,5.0,10.0,50,0.00,,,0.00,,2013-02-22 18:32:00,
2013-02-22 12:42:00,49.0,31.0,29.95,ENE,72,5.0,10.0,50,0.00,,,0.00,,2013-02-22 18:42:00,
2013-02-22 12:51:00,49.0,31.0,29.95,ENE,72,5.0,10.0,50,0.00,,,0.00,,2013-02-22 18:51:00,
2013-02-22 13:01:00,49.0,32.0,29.93,NNE,30,4.0,10.0,51,0.00,,,0.00,,2013-02-22 19:01:00,
2013-02-22 13:11:00,50.0,32.0,29.93,ENE,75,2.0,9.0,50,0.00,,,0.00,,2013-02-22 19:11:00,
2013-02-22 13:21:00,50.0,32.0,29.93,ENE,75,2.0,9.0,50,0.00,,,0.00,,2013-02-22 19:21:00,
2013-02-22 13:31:00,51.0,32.0,29.91,WNW,287,3.0,9.0,48,0.00,,,0.00,,2013-02-22 19:31:00,
2013-02-22 13:41:00,51.0,31.0,29.91,East,91,3.0,9.0,47,0.00,,,0.00,,2013-02-22 19:41:00,
2013-02-22 13:52:00,51.0,31.0,29.91,East,91,3.0,9.0,47,0.00,,,0.00,,2013-02-22 19:52:00,
2013-02-22 14:01:00,52.0,31.0,29.90,East,99,2.0,8.0,45,0.00,,,0.00,,2013-02-22 20:01:00,
2013-02-22 14:11:00,52.0,31.0,29.90,East,99,2.0,8.0,45,0.00,,,0.00,,2013-02-22 20:11:00,
2013-02-22 14:21:00,53.0,32.0,29.89,ESE,103,4.0,9.0,45,0.00,,,0.00,,2013-02-22 20:21:00,
2013-02-22 14:32:00,53.0,32.0,29.88,East,101,3.0,7.0,45,0.00,,,0.00,,2013-02-22 20:32:00,
2013-02-22 14:41:00,53.0,32.0,29.88,East,101,3.0,7.0,45,0.00,,,0.00,,2013-02-22 20:41:00,
2013-02-22 14:52:00,53.0,33.0,29.88,East,84,3.0,8.0,46,0.00,,,0.00,,2013-02-22 20:52:00,
2013-02-22 15:01:00,55.0,33.0,29.88,ESE,105,4.0,10.0,44,0.00,,,0.00,,2013-02-22 21:01:00,
2013-02-22 15:11:00,55.0,32.0,29.87,East,89,4.0,7.0,42,0.00,,,0.00,,2013-02-22 21:11:00,
2013-02-22 15:21:00,55.0,32.0,29.87,East,89,4.0,7.0,42,0.00,,,0.00,,2013-02-22 21:21:00,
2013-02-22 15:32:00,56.0,33.0,29.86,ESE,122,4.0,7.0,41,0.00,,,0.00,,2013-02-22 21:32:00,
2013-02-22 15:42:00,56.0,33.0,29.86,ESE,122,4.0,7.0,41,0.00,,,0.00,,2013-02-22 21:42:00,
2013-02-22 15:51:00,56.0,33.0,29.86,ENE,70,4.0,7.0,41,0.00,,,0.00,,2013-02-22 21:51:00,
2013-02-22 16:01:00,57.0,34.0,29.86,ENE,68,2.0,8.0,41,0.00,,,0.00,,2013-02-22 22:01:00,
2013-02-22 16:11:00,57.0,34.0,29.86,ENE,68,2.0,8.0,41,0.00,,,0.00,,2013-02-22 22:11:00,
2013-02-22 16:21:00,57.0,34.0,29.86,SE,139,3.0,7.0,41,0.00,,,0.00,,2013-02-22 22:21:00,
2013-02-22 16:31:00,57.0,34.0,29.86,East,83,3.0,7.0,41,0.00,,,0.00,,2013-02-22 22:31:00,
2013-02-22 16:41:00,57.0,34.0,29.86,East,83,3.0,7.0,41,0.00,,,0.00,,2013-02-22 22:41:00,
2013-02-22 16:51:00,57.0,33.0,29.85,SE,131,6.0,8.0,40,0.00,,,0.00,,2013-02-22 22:51:00,
2013-02-22 17:01:00,56.0,33.0,29.85,ESE,122,4.0,7.0,41,0.00,,,0.00,,2013-02-22 23:01:00,
2013-02-22 17:11:00,56.0,33.0,29.85,ESE,122,4.0,7.0,41,0.00,,,0.00,,2013-02-22 23:11:00,
2013-02-22 17:21:00,56.0,33.0,29.85,ESE,120,4.0,7.0,41,0.00,,,0.00,,2013-02-22 23:21:00,
2013-02-22 17:31:00,55.0,33.0,29.85,ESE,105,2.0,6.0,43,0.00,,,0.00,,2013-02-22 23:31:00,
2013-02-22 17:41:00,55.0,33.0,29.85,ESE,105,2.0,6.0,43,0.00,,,0.00,,2013-02-22 23:41:00,
2013-02-22 17:52:00,55.0,33.0,29.86,East,101,2.0,6.0,44,0.00,,,0.00,,2013-02-22 23:52:00,
2013-02-22 18:01:00,54.0,33.0,29.87,SE,126,4.0,6.0,45,0.00,,,0.00,,2013-02-23 00:01:00,
2013-02-22 18:11:00,54.0,33.0,29.87,East,101,4.0,7.0,45,0.00,,,0.00,,2013-02-23 00:11:00,
2013-02-22 18:21:00,54.0,33.0,29.87,East,101,4.0,7.0,45,0.00,,,0.00,,2013-02-23 00:21:00,
2013-02-22 18:32:00,54.0,34.0,29.87,East,101,2.0,7.0,47,0.00,,,0.00,,2013-02-23 00:32:00,
2013-02-22 18:42:00,54.0,34.0,29.87,East,101,2.0,7.0,47,0.00,,,0.00,,2013-02-23 00:42:00,
2013-02-22 18:51:00,53.0,34.0,29.89,ENE,78,1.0,4.0,49,0.00,,,0.00,,2013-02-23 00:51:00,
2013-02-22 19:01:00,52.0,34.0,29.89,East,96,1.0,5.0,51,0.00,,,0.00,,2013-02-23 01:01:00,
2013-02-22 19:11:00,52.0,34.0,29.89,East,96,1.0,5.0,51,0.00,,,0.00,,2013-02-23 01:11:00,
2013-02-22 19:21:00,51.0,34.0,29.90,NE,56,2.0,6.0,52,0.00,,,0.00,,2013-02-23 01:21:00,
2013-02-22 19:31:00,51.0,34.0,29.91,East,84,1.0,7.0,53,0.00,,,0.00,,2013-02-23 01:31:00,
2013-02-22 19:42:00,51.0,34.0,29.91,East,84,1.0,7.0,53,0.00,,,0.00,,2013-02-23 01:42:00,
2013-02-22 19:51:00,50.0,34.0,29.92,SE,129,2.0,6.0,53,0.00,,,0.00,,2013-02-23 01:51:00,
2013-02-22 20:01:00,50.0,34.0,29.93,NE,53,2.0,6.0,53,0.00,,,0.00,,2013-02-23 02:01:00,
2013-02-22 20:11:00,50.0,34.0,29.93,ENE,73,3.0,6.0,53,0.00,,,0.00,,2013-02-23 02:11:00,
2013-02-22 20:21:00,50.0,34.0,29.93,ENE,73,3.0,6.0,53,0.00,,,0.00,,2013-02-23 02:21:00,
2013-02-22 20:31:00,50.0,34.0,29.93,East,85,2.0,8.0,53,0.00,,,0.00,,2013-02-23 02:31:00,
2013-02-22 20:42:00,50.0,34.0,29.93,East,85,2.0,8.0,53,0.00,,,0.00,,2013-02-23 02:42:00,
2013-02-22 20:52:00,49.0,33.0,29.94,ESE,123,4.0,8.0,54,0.00,,,0.00,,2013-02-23 02:52:00,
2013-02-22 21:01:00,49.0,34.0,29.95,East,89,4.0,10.0,55,0.00,,,0.00,,2013-02-23 03:01:00,
2013-02-22 21:11:00,49.0,34.0,29.95,East,89,4.0,10.0,55,0.00,,,0.00,,2013-02-23 03:11:00,
2013-02-22 21:21:00,48.0,33.0,29.95,ESE,120,3.0,6.0,55,0.00,,,0.00,,2013-02-23 03:21:00,
2013-02-22 21:32:00,48.0,33.0,29.95,ENE,71,3.0,8.0,55,0.00,,,0.00,,2013-02-23 03:32:00,
2013-02-22 21:42:00,48.0,33.0,29.95,ENE,71,3.0,8.0,55,0.00,,,0.00,,2013-02-23 03:42:00,
2013-02-22 21:51:00,47.0,33.0,29.96,East,99,2.0,4.0,57,0.00,,,0.00,,2013-02-23 03:51:00,
2013-02-22 22:01:00,46.0,32.0,29.95,East,89,2.0,11.0,57,0.00,,,0.00,,2013-02-23 04:01:00,
2013-02-22 22:11:00,46.0,32.0,29.96,NE,49,3.0,6.0,58,0.00,,,0.00,,2013-02-23 04:11:00,
2013-02-22 22:21:00,46.0,32.0,29.96,NE,49,3.0,6.0,58,0.00,,,0.00,,2013-02-23 04:21:00,
2013-02-22 22:31:00,45.0,32.0,29.97,East,92,2.0,5.0,60,0.00,,,0.00,,2013-02-23 04:31:00,
2013-02-22 22:41:00,45.0,32.0,29.97,East,92,2.0,5.0,60,0.00,,,0.00,,2013-02-23 04:41:00,
2013-02-22 22:51:00,45.0,32.0,29.97,East,92,2.0,5.0,60,0.00,,,0.00,,2013-02-23 04:51:00,
2013-02-22 23:02:00,44.0,31.0,29.97,ESE,110,1.0,4.0,60,0.00,,,0.00,,2013-02-23 05:02:00,
2013-02-22 23:12:00,44.0,31.0,29.97,ESE,110,1.0,4.0,60,0.00,,,0.00,,2013-02-23 05:12:00,
2013-02-22 23:22:00,44.0,31.0,29.97,SE,125,3.0,6.0,60,0.00,,,0.00,,2013-02-23 05:22:00,
2013-02-22 23:32:00,44.0,31.0,29.96,East,83,2.0,7.0,60,0.00,,,0.00,,2013-02-23 05:32:00,
2013-02-22 23:42:00,44.0,31.0,29.96,East,83,2.0,7.0,60,0.00,,,0.00,,2013-02-23 05:42:00,
2013-02-22 23:52:00,43.0,30.0,29.96,ESE,115,1.0,3.0,61,0.00,,,0.00,,2013-02-23 05:52:00,